Time;durP1;ratioP1;P1;durP2;ratioP2;P2;SDS_P1;SDS_P2;PMS_P1;PMS_P2;Temp;Humidity;BMP_temperature;BMP_pressure;BME280_temperature;BME280_humidity;BME280_pressure;Samples;Min_cycle;Max_cycle;Signal;HPM_P1;HPM_P2
2023/07/11 00:01:40;;;;;;;10.60;5.45;;;;;;;23.10;58.42;99844.22;7711577;32;39983;-81
2023/07/11 00:06:05;;;;;;;8.45;5.45;;;;;;;23.05;58.37;99847.22;7711889;32;38056;-80
2023/07/11 00:10:22;;;;;;;8.82;5.30;;;;;;;23.02;58.52;99847.91;7699004;32;36754;-81
2023/07/11 00:14:38;;;;;;;8.60;5.22;;;;;;;22.97;58.70;99851.75;7711797;32;39387;-82
2023/07/11 00:18:54;;;;;;;10.15;5.45;;;;;;;23.00;58.69;99855.81;7711949;32;39976;-81
2023/07/11 00:23:11;;;;;;;9.10;5.45;;;;;;;23.00;58.68;99850.25;7711753;32;38132;-81
2023/07/11 00:27:28;;;;;;;8.30;5.30;;;;;;;23.00;58.69;99855.81;7723386;32;37805;-81
2023/07/11 00:31:44;;;;;;;9.15;5.55;;;;;;;22.98;58.89;99858.13;7724907;32;39382;-81
2023/07/11 00:36:00;;;;;;;10.05;5.82;;;;;;;22.94;59.06;99860.00;7738252;32;40002;-81
2023/07/11 00:40:17;;;;;;;9.50;5.47;;;;;;;22.98;58.95;99860.91;7738259;32;38799;-81
2023/07/11 00:44:53;;;;;;;10.07;5.72;;;;;;;22.94;59.03;99857.22;7738514;32;37288;-81
2023/07/11 00:49:12;;;;;;;11.52;5.80;;;;;;;22.91;59.26;99857.94;7738356;32;39221;-81
2023/07/11 00:53:28;;;;;;;10.73;6.15;;;;;;;22.86;59.30;99847.87;7724807;32;38864;-81
2023/07/11 00:57:45;;;;;;;10.63;5.22;;;;;;;22.90;59.12;99850.75;7726860;32;37904;-81
2023/07/11 01:02:06;;;;;;;10.00;4.97;;;;;;;22.88;58.58;99843.56;7738112;32;37952;-81
2023/07/11 01:06:26;;;;;;;10.45;5.35;;;;;;;22.91;57.49;99838.47;7724508;32;40203;-81
2023/07/11 01:10:42;;;;;;;7.32;4.85;;;;;;;22.90;57.16;99846.00;7738102;32;39922;-81
2023/07/11 01:14:58;;;;;;;8.90;4.45;;;;;;;23.01;56.33;99833.22;7736726;32;38947;-80
2023/07/11 01:19:15;;;;;;;9.65;4.90;;;;;;;22.94;56.39;99827.47;7738045;32;37136;-80
2023/07/11 01:23:32;;;;;;;8.48;4.87;;;;;;;23.02;55.88;99831.22;7737818;32;40177;-81
2023/07/11 01:27:49;;;;;;;11.50;5.55;;;;;;;22.96;55.89;99827.91;7732291;32;40836;-81
2023/07/11 01:32:06;;;;;;;10.35;4.78;;;;;;;23.00;55.39;99825.22;7722693;32;37572;-81
2023/07/11 01:36:22;;;;;;;7.57;5.03;;;;;;;23.14;54.82;99817.28;7710925;32;37215;-81
2023/07/11 01:40:39;;;;;;;11.68;4.87;;;;;;;23.17;54.36;99815.78;7710889;32;40183;-82
2023/07/11 01:44:55;;;;;;;9.20;4.90;;;;;;;22.96;55.17;99805.69;7710678;32;40747;-81
2023/07/11 01:49:11;;;;;;;9.93;5.43;;;;;;;23.24;54.08;99799.28;7710533;32;37962;-81
2023/07/11 01:53:27;;;;;;;10.13;5.47;;;;;;;23.02;54.59;99809.00;7710637;32;36826;-81
2023/07/11 01:57:44;;;;;;;11.85;6.10;;;;;;;22.90;55.17;99806.28;7725244;32;39236;-81
2023/07/11 02:02:00;;;;;;;8.27;5.12;;;;;;;22.80;56.16;99808.41;7726495;32;39896;-81
2023/07/11 02:06:16;;;;;;;10.27;5.72;;;;;;;22.65;57.06;99807.19;7736564;32;38781;-81
2023/07/11 02:10:33;;;;;;;9.18;5.25;;;;;;;22.71;57.05;99804.16;7736948;32;37338;-81
2023/07/11 02:14:49;;;;;;;9.30;5.05;;;;;;;22.65;57.09;99806.38;7736838;32;39342;-81
2023/07/11 02:19:05;;;;;;;10.85;5.10;;;;;;;22.60;57.01;99812.19;7736816;32;40138;-81
2023/07/11 02:23:21;;;;;;;11.00;5.28;;;;;;;22.60;57.01;99812.19;7736524;32;38756;-80
2023/07/11 02:27:38;;;;;;;11.05;5.35;;;;;;;22.66;56.87;99816.31;7724740;32;36844;-80
2023/07/11 02:31:54;;;;;;;12.82;5.70;;;;;;;22.73;57.18;99813.75;7699251;32;40061;-80
2023/07/11 02:36:10;;;;;;;9.02;5.60;;;;;;;22.73;57.59;99812.94;7721721;32;39948;-80
2023/07/11 02:40:27;;;;;;;8.68;5.57;;;;;;;22.56;58.28;99803.75;7739864;32;38213;-81
2023/07/11 02:44:43;;;;;;;10.55;5.78;;;;;;;22.44;58.73;99799.03;7739830;32;37056;-80
2023/07/11 02:48:59;;;;;;;8.00;5.00;;;;;;;22.47;58.42;99803.06;7738098;32;39762;-80
2023/07/11 02:53:16;;;;;;;9.38;5.60;;;;;;;22.50;58.17;99803.19;7738955;32;39994;-81
2023/07/11 02:57:32;;;;;;;11.05;5.53;;;;;;;22.57;57.93;99801.78;7728494;32;37850;-80
2023/07/11 03:01:49;;;;;;;11.18;5.45;;;;;;;22.40;58.42;99805.66;7739865;32;35163;-80
2023/07/11 03:06:05;;;;;;;13.20;5.70;;;;;;;22.38;58.66;99797.66;7739583;32;40046;-81
2023/07/11 03:10:22;;;;;;;10.43;5.22;;;;;;;22.46;58.52;99805.06;7725501;32;39640;-81
2023/07/11 03:14:38;;;;;;;8.75;5.40;;;;;;;22.27;59.11;99804.84;7725472;32;38634;-80
2023/07/11 03:18:54;;;;;;;11.10;6.10;;;;;;;22.26;59.12;99808.78;7739475;32;37230;-80
2023/07/11 03:23:13;;;;;;;9.50;5.62;;;;;;;22.26;59.13;99806.00;7739377;32;40129;-80
2023/07/11 03:27:30;;;;;;;9.70;5.35;;;;;;;22.27;59.06;99815.97;7725163;32;40592;-80
2023/07/11 03:31:46;;;;;;;9.40;5.47;;;;;;;22.35;58.79;99815.03;7726047;32;38024;-80
2023/07/11 03:36:03;;;;;;;12.70;6.20;;;;;;;22.33;58.70;99817.34;7712038;32;37443;-80
2023/07/11 03:40:20;;;;;;;11.02;5.57;;;;;;;22.34;58.74;99816.19;7712206;32;39031;-80
2023/07/11 03:44:37;;;;;;;9.43;5.47;;;;;;;22.41;58.59;99829.50;7712286;32;39869;-80
2023/07/11 03:48:57;;;;;;;9.35;5.30;;;;;;;22.39;58.86;99837.38;7698320;32;38444;-80
2023/07/11 03:53:14;;;;;;;9.98;5.22;;;;;;;22.44;58.73;99832.38;7712293;32;36912;-80
2023/07/11 03:57:30;;;;;;;9.13;5.60;;;;;;;22.47;58.75;99839.19;7724545;32;39322;-80
2023/07/11 04:01:47;;;;;;;11.57;5.47;;;;;;;22.48;58.84;99847.16;7738881;32;39972;-80
2023/07/11 04:06:03;;;;;;;11.45;5.35;;;;;;;22.53;58.75;99837.00;7739078;32;37175;-80
2023/07/11 04:10:20;;;;;;;14.90;6.12;;;;;;;22.61;58.57;99831.28;7738696;32;37073;-80
2023/07/11 04:14:37;;;;;;;12.23;5.72;;;;;;;22.71;58.55;99829.97;7724688;32;39414;-80
2023/07/11 04:18:53;;;;;;;9.70;5.80;;;;;;;22.73;58.79;99830.41;7738673;32;39972;-80
2023/07/11 04:23:10;;;;;;;13.60;6.93;;;;;;;22.76;58.82;99831.69;7738679;32;38583;-80
2023/07/11 04:27:26;;;;;;;9.95;5.68;;;;;;;22.77;59.13;99838.88;7736745;32;37129;-80
2023/07/11 04:31:42;;;;;;;11.57;5.95;;;;;;;22.92;58.76;99834.53;7724116;32;39502;-80
2023/07/11 04:36:10;;;;;;;10.27;5.78;;;;;;;22.92;58.92;99837.31;7738481;32;40139;-80
2023/07/11 04:40:26;;;;;;;8.90;5.50;;;;;;;22.86;59.69;99826.44;7724883;32;37998;-80
2023/07/11 04:44:43;;;;;;;10.48;6.12;;;;;;;23.05;59.37;99830.53;7738509;32;35872;-80
2023/07/11 04:48:59;;;;;;;15.32;6.85;;;;;;;23.15;59.21;99834.81;7738167;32;40104;-80
2023/07/11 04:53:16;;;;;;;10.45;6.05;;;;;;;23.11;59.37;99840.28;7738316;32;40013;-68
2023/07/11 04:57:32;;;;;;;17.00;6.93;;;;;;;23.38;58.66;99832.22;7725510;32;37910;-68
2023/07/11 05:01:48;;;;;;;14.77;6.10;;;;;;;23.48;58.63;99842.03;7715134;32;37326;-68
2023/07/11 05:06:05;;;;;;;12.18;6.90;;;;;;;23.65;58.19;99838.91;7721951;32;39396;-68
2023/07/11 05:10:22;;;;;;;12.88;5.57;;;;;;;23.51;59.08;99850.47;7738041;32;40502;-69
2023/07/11 05:14:38;;;;;;;10.18;6.07;;;;;;;23.81;58.48;99838.91;7737785;32;38606;-67
2023/07/11 05:18:57;;;;;;;12.10;6.53;;;;;;;24.00;58.14;99844.53;7731886;32;37336;-67
2023/07/11 05:23:13;;;;;;;13.35;7.10;;;;;;;24.22;57.60;99858.19;7724209;32;39167;-67
2023/07/11 05:27:30;;;;;;;15.32;10.52;;;;;;;24.30;57.53;99863.56;7716191;32;40645;-69
2023/07/11 05:31:46;;;;;;;14.87;10.18;;;;;;;23.90;55.74;99875.72;7710858;32;38729;-67
2023/07/11 05:36:25;;;;;;;14.70;9.02;;;;;;;23.88;55.58;99872.50;7723831;32;38001;-68
2023/07/11 05:40:42;;;;;;;13.60;8.35;;;;;;;24.02;55.56;99876.81;7721858;32;39149;-71
2023/07/11 05:44:58;;;;;;;12.25;8.02;;;;;;;23.91;55.99;99882.13;7721312;32;40013;-70
2023/07/11 05:49:15;;;;;;;11.80;7.55;;;;;;;23.98;55.70;99865.56;7724970;32;38724;-70
2023/07/11 05:53:31;;;;;;;15.52;7.75;;;;;;;23.93;56.11;99866.66;7737132;32;37250;-67
2023/07/11 05:57:48;;;;;;;14.13;7.45;;;;;;;24.11;55.62;99869.06;7712020;32;39272;-67
2023/07/11 06:02:04;;;;;;;12.55;8.57;;;;;;;24.01;56.18;99876.00;7727857;32;39945;-67
2023/07/11 06:06:22;;;;;;;15.20;8.57;;;;;;;23.99;55.10;99879.13;7736910;32;38083;-67
2023/07/11 06:10:39;;;;;;;13.00;8.30;;;;;;;24.19;55.05;99882.78;7736866;32;37229;-69
2023/07/11 06:14:55;;;;;;;12.35;7.87;;;;;;;23.72;55.99;99877.22;7730112;32;40291;-66
2023/07/11 06:19:11;;;;;;;11.25;7.68;;;;;;;24.14;55.40;99876.69;7734119;32;39738;-65
2023/07/11 06:23:28;;;;;;;18.33;8.65;;;;;;;24.28;55.24;99879.81;7710209;32;37450;-66
2023/07/11 06:27:44;;;;;;;11.40;7.47;;;;;;;24.21;54.94;99874.06;7722755;32;37353;-66
2023/07/11 06:32:00;;;;;;;13.23;7.65;;;;;;;24.14;55.10;99876.69;7716814;32;40162;-68
2023/07/11 06:36:17;;;;;;;12.82;6.87;;;;;;;24.55;53.44;99880.06;7716892;32;40250;-65
2023/07/11 06:40:33;;;;;;;11.05;7.07;;;;;;;24.70;53.45;99873.63;7723812;32;38649;-67
2023/07/11 06:44:51;;;;;;;12.60;7.45;;;;;;;24.19;54.80;99874.44;7735513;32;36103;-67
2023/07/11 06:49:07;;;;;;;12.75;7.00;;;;;;;23.95;55.31;99888.56;7717373;32;39112;-67
2023/07/11 06:53:26;;;;;;;13.45;6.90;;;;;;;24.10;55.56;99881.38;7709111;32;40723;-67
2023/07/11 06:57:42;;;;;;;13.38;6.97;;;;;;;24.72;54.05;99874.06;7708953;32;37382;-67
2023/07/11 07:01:58;;;;;;;12.40;7.22;;;;;;;24.63;54.21;99878.22;7709049;32;37206;-68
2023/07/11 07:06:17;;;;;;;12.18;6.72;;;;;;;24.61;54.99;99880.56;7716524;32;40132;-68
2023/07/11 07:10:33;;;;;;;14.68;6.93;;;;;;;24.88;54.19;99879.56;7722918;32;41482;-67
2023/07/11 07:14:49;;;;;;;12.32;6.68;;;;;;;25.35;51.89;99886.09;7727510;32;38734;-68
2023/07/11 07:19:07;;;;;;;14.70;7.60;;;;;;;24.83;53.48;99888.22;7739455;32;37237;-68
2023/07/11 07:23:23;;;;;;;10.82;6.57;;;;;;;25.22;52.57;99887.41;7739326;32;39295;-67
2023/07/11 07:27:39;;;;;;;10.95;6.65;;;;;;;25.52;52.20;99881.22;7739203;32;40618;-68
2023/07/11 07:31:56;;;;;;;11.48;7.80;;;;;;;25.66;51.61;99884.25;7735028;32;37612;-82
2023/07/11 07:36:13;;;;;;;10.57;7.00;;;;;;;25.54;51.13;99888.03;7736441;32;37090;-82
2023/07/11 07:40:29;;;;;;;11.77;6.70;;;;;;;25.90;51.39;99885.06;7717491;32;40057;-84
2023/07/11 07:44:47;;;;;;;10.30;6.43;;;;;;;26.18;49.37;99879.97;7729598;32;40657;-80
2023/07/11 07:49:03;;;;;;;11.63;6.80;;;;;;;26.52;49.82;99874.47;7721175;32;38444;-79
2023/07/11 07:53:19;;;;;;;10.25;6.68;;;;;;;26.71;47.71;99869.97;7711830;32;38268;-81
2023/07/11 07:57:36;;;;;;;16.73;7.32;;;;;;;26.45;48.78;99876.38;7722634;32;40023;-81
2023/07/11 08:01:52;;;;;;;11.05;6.90;;;;;;;26.41;48.66;99873.53;7717059;32;39901;-81
2023/07/11 08:06:10;;;;;;;12.82;7.22;;;;;;;26.55;49.28;99873.72;7733958;32;37679;-82
2023/07/11 08:10:30;;;;;;;14.93;7.22;;;;;;;25.94;50.21;99878.41;7728147;32;36613;-81
2023/07/11 08:14:46;;;;;;;11.68;6.57;;;;;;;26.57;48.64;99871.34;7723202;32;39568;-83
2023/07/11 08:19:04;;;;;;;11.25;6.32;;;;;;;26.93;49.41;99865.44;7734195;32;40061;-81
2023/07/11 08:23:23;;;;;;;10.77;6.95;;;;;;;26.65;48.43;99871.47;7738168;32;38658;-80
2023/07/11 08:27:39;;;;;;;12.18;6.40;;;;;;;26.92;47.60;99873.03;7738434;32;37123;-80
2023/07/11 08:31:56;;;;;;;10.27;5.97;;;;;;;26.98;47.92;99867.91;7738516;32;40051;-81
2023/07/11 08:36:13;;;;;;;13.52;6.78;;;;;;;27.23;45.20;99875.78;7738391;32;40822;-80
2023/07/11 08:40:33;;;;;;;12.80;7.37;;;;;;;27.65;45.67;99871.84;7735584;32;37877;-80
2023/07/11 08:45:23;;;;;;;10.45;7.00;;;;;;;27.65;45.76;99869.03;7726364;32;37996;-80
2023/07/11 08:49:49;;;;;;;13.45;6.78;;;;;;;27.83;45.62;99874.78;7726605;32;39372;-79
2023/07/11 08:54:27;;;;;;;11.48;6.90;;;;;;;28.42;44.01;99864.44;7738272;32;39791;-80
2023/07/11 08:58:45;;;;;;;11.23;6.47;;;;;;;28.61;43.84;99865.38;7721642;32;37958;-80
2023/07/11 09:03:12;;;;;;;10.52;6.20;;;;;;;28.64;43.01;99862.56;7710241;32;36570;-80
2023/07/11 09:07:37;;;;;;;11.05;6.12;;;;;;;28.48;43.55;99862.88;7730464;32;39515;-80
2023/07/11 09:12:19;;;;;;;9.25;5.87;;;;;;;28.69;42.33;99861.41;7714190;32;39616;-80
2023/07/11 09:16:53;;;;;;;8.68;5.62;;;;;;;28.79;39.73;99857.03;7710887;32;37997;-81
2023/07/11 09:21:26;;;;;;;14.15;6.35;;;;;;;28.56;40.93;99862.94;7722993;32;38551;-80
2023/07/11 09:25:45;;;;;;;10.70;6.18;;;;;;;28.97;40.42;99865.53;7711959;32;40011;-81
2023/07/11 09:30:11;;;;;;;10.15;5.47;;;;;;;29.56;38.67;99860.50;7723058;32;39879;-80
2023/07/11 09:34:36;;;;;;;9.35;5.60;;;;;;;29.65;37.39;99848.84;7739978;32;38038;-80
2023/07/11 09:39:01;;;;;;;7.68;5.10;;;;;;;30.17;37.12;99842.00;7741552;32;36708;-81
2023/07/11 09:43:17;;;;;;;11.15;5.60;;;;;;;29.64;38.18;99852.84;7697184;32;39146;-81
2023/07/11 09:47:34;;;;;;;10.60;5.50;;;;;;;29.76;37.26;99843.25;7709520;32;40552;-79
2023/07/11 09:51:56;;;;;;;9.43;5.30;;;;;;;29.57;37.30;99831.19;7723223;32;38738;-80
2023/07/11 09:56:16;;;;;;;13.40;5.80;;;;;;;29.85;37.84;99838.03;7695519;32;36938;-82
2023/07/11 10:00:33;;;;;;;8.52;4.70;;;;;;;30.44;37.04;99828.31;7748111;32;39071;-82
2023/07/11 10:04:51;;;;;;;10.93;5.00;;;;;;;30.79;33.60;99820.97;7763575;32;39979;-82
2023/07/11 10:09:28;;;;;;;11.63;4.35;;;;;;;31.23;32.08;99817.50;7756560;32;39179;-81
2023/07/11 10:13:46;;;;;;;8.95;4.87;;;;;;;31.14;29.65;99816.38;7711997;32;37586;-81
2023/07/11 10:18:02;;;;;;;6.45;4.32;;;;;;;31.53;29.99;99813.31;7720049;32;40159;-81
2023/07/11 10:22:21;;;;;;;8.38;4.57;;;;;;;31.59;29.55;99825.72;7723488;32;40842;-83
2023/07/11 10:26:39;;;;;;;8.18;4.32;;;;;;;32.32;27.28;99821.06;7720415;32;37548;-83
2023/07/11 10:30:58;;;;;;;8.82;4.53;;;;;;;32.28;27.57;99819.50;7722450;32;37081;-84
2023/07/11 10:35:17;;;;;;;9.52;4.78;;;;;;;32.60;26.02;99818.31;7706023;32;39323;-82
2023/07/11 10:39:48;;;;;;;8.65;4.53;;;;;;;32.93;28.00;99820.31;7704987;32;39635;-84
2023/07/11 10:44:11;;;;;;;10.23;4.70;;;;;;;33.50;26.52;99809.44;7704402;32;38672;-82
2023/07/11 10:48:32;;;;;;;9.73;4.35;;;;;;;33.59;26.12;99814.53;7716136;32;38198;-82
2023/07/11 10:52:51;;;;;;;9.35;4.65;;;;;;;33.62;26.46;99802.37;7721889;32;39289;-82
2023/07/11 10:57:16;;;;;;;10.95;4.40;;;;;;;33.46;26.11;99811.50;7723748;32;40674;-83
2023/07/11 11:01:48;;;;;;;6.95;4.43;;;;;;;33.15;26.34;99808.75;7726969;32;37871;-82
2023/07/11 11:06:30;;;;;;;11.02;4.37;;;;;;;33.02;27.95;99810.53;7711288;32;37127;-80
2023/07/11 11:11:24;;;;;;;9.43;4.77;;;;;;;32.76;26.70;99810.06;7738614;32;37942;-80
2023/07/11 11:15:53;;;;;;;11.30;4.65;;;;;;;33.17;26.22;99789.38;7717780;32;40877;-79
2023/07/11 11:20:21;;;;;;;9.27;4.70;;;;;;;33.26;27.23;99800.12;7720362;32;37943;-80
2023/07/11 11:24:46;;;;;;;10.25;4.47;;;;;;;33.22;26.25;99785.25;7731815;32;37094;-79
2023/07/11 11:29:20;;;;;;;11.02;4.80;;;;;;;33.06;26.11;99783.03;7712253;32;40053;-78
2023/07/11 11:34:00;;;;;;;8.73;4.90;;;;;;;33.00;25.28;99777.06;7727128;32;39937;-78
2023/07/11 11:38:35;;;;;;;10.88;5.20;;;;;;;33.44;24.02;99775.22;7715332;32;38014;-78
2023/07/11 11:42:58;;;;;;;8.90;4.43;;;;;;;32.65;25.13;99765.06;7717316;32;37859;-79
2023/07/11 11:47:18;;;;;;;10.43;4.90;;;;;;;33.06;24.95;99763.28;7721635;32;40376;-80
2023/07/11 11:51:37;;;;;;;8.20;4.45;;;;;;;33.07;24.88;99776.19;7712152;32;40130;-79
2023/07/11 11:56:01;;;;;;;10.30;4.60;;;;;;;33.32;26.03;99761.69;7708575;32;37668;-77
2023/07/11 12:00:56;;;;;;;10.43;5.20;;;;;;;33.66;25.89;99769.97;7712475;32;37197;-78
2023/07/11 12:05:20;;;;;;;10.80;4.72;;;;;;;34.01;25.37;99759.28;7722618;32;40215;-81
2023/07/11 12:09:45;;;;;;;9.88;4.90;;;;;;;33.92;24.77;99753.41;7730051;32;40049;-81
2023/07/11 12:14:19;;;;;;;8.13;4.65;;;;;;;33.49;25.33;99754.94;7735381;32;39203;-80
2023/07/11 12:18:44;;;;;;;8.38;4.70;;;;;;;33.72;25.61;99749.72;7727030;32;37078;-79
2023/07/11 12:23:04;;;;;;;8.45;5.12;;;;;;;34.31;24.93;99740.53;7735350;32;39381;-80
2023/07/11 12:27:49;;;;;;;8.25;4.93;;;;;;;34.83;25.20;99741.06;7731308;32;39972;-80
2023/07/11 12:32:33;;;;;;;10.85;4.90;;;;;;;35.37;25.73;99734.94;7736686;32;38169;-78
2023/07/11 12:36:52;;;;;;;10.98;5.10;;;;;;;35.80;23.01;99733.81;7730301;32;37504;-80
2023/07/11 12:41:18;;;;;;;10.35;5.12;;;;;;;35.03;23.55;99730.47;7738068;32;40092;-78
2023/07/11 12:46:34;;;;;;;10.32;4.87;;;;;;;34.55;24.10;99720.66;7737772;32;39600;-80
2023/07/11 12:50:53;;;;;;;10.32;5.00;;;;;;;34.21;24.99;99718.94;7695658;32;37374;-79
2023/07/11 12:55:13;;;;;;;10.27;4.53;;;;;;;34.94;24.90;99707.62;7725146;32;36994;-78
2023/07/11 12:59:31;;;;;;;9.50;5.05;;;;;;;34.97;23.85;99712.41;7722603;32;39457;-77
2023/07/11 13:03:47;;;;;;;10.63;4.95;;;;;;;35.12;22.81;99712.88;7721280;32;39305;-79
2023/07/11 13:08:14;;;;;;;9.23;4.53;;;;;;;35.24;22.40;99703.69;7706738;32;38702;-79
2023/07/11 13:12:36;;;;;;;8.68;4.65;;;;;;;34.93;22.27;99697.56;7705538;32;37891;-79
2023/07/11 13:16:52;;;;;;;9.65;4.60;;;;;;;35.41;23.93;99695.97;7725718;32;39069;-79
2023/07/11 13:21:09;;;;;;;9.30;4.43;;;;;;;35.19;22.08;99690.03;7724893;32;40887;-79
2023/07/11 13:25:35;;;;;;;7.43;4.12;;;;;;;35.65;22.09;99695.72;7710644;32;37721;-79
2023/07/11 13:29:53;;;;;;;12.45;4.80;;;;;;;35.15;22.15;99700.62;7723396;32;37274;-80
2023/07/11 13:34:20;;;;;;;10.15;4.60;;;;;;;34.80;22.86;99698.22;7732646;32;40620;-81
2023/07/11 13:39:06;;;;;;;8.07;4.72;;;;;;;34.89;23.00;99691.16;7725176;32;40788;-78
2023/07/11 13:43:23;;;;;;;8.38;5.35;;;;;;;34.75;22.44;99693.09;7718228;32;38643;-79
2023/07/11 13:47:44;;;;;;;8.70;4.82;;;;;;;34.46;22.79;99683.63;7710457;32;37930;-79
2023/07/11 13:52:01;;;;;;;8.77;4.87;;;;;;;34.19;23.30;99690.25;7723510;32;39413;-79
2023/07/11 13:56:18;;;;;;;9.63;4.70;;;;;;;34.49;23.74;99686.38;7720974;32;40620;-79
2023/07/11 14:00:35;;;;;;;7.82;4.72;;;;;;;34.88;23.25;99687.53;7718514;32;38491;-80
2023/07/11 14:04:51;;;;;;;8.85;4.78;;;;;;;35.28;22.45;99680.94;7704111;32;37790;-77
2023/07/11 14:09:13;;;;;;;8.15;5.32;;;;;;;35.02;21.57;99691.28;7719066;32;39145;-79
2023/07/11 14:13:29;;;;;;;10.52;5.30;;;;;;;35.21;21.72;99683.94;7719547;32;39950;-78
2023/07/11 14:17:46;;;;;;;7.70;4.60;;;;;;;35.10;21.32;99681.34;7736018;32;37601;-80
2023/07/11 14:22:23;;;;;;;8.95;4.85;;;;;;;35.11;21.39;99678.06;7735708;32;37194;-79
2023/07/11 14:26:39;;;;;;;12.68;5.55;;;;;;;35.43;21.58;99678.50;7724283;32;39377;-80
2023/07/11 14:31:00;;;;;;;11.93;4.78;;;;;;;35.46;21.82;99686.94;7698337;32;39606;-79
2023/07/11 14:35:22;;;;;;;11.35;5.50;;;;;;;35.91;21.37;99671.13;7718634;32;37923;-81
2023/07/11 14:39:38;;;;;;;9.90;4.75;;;;;;;35.46;20.87;99669.94;7717016;32;35965;-80
2023/07/11 14:43:54;;;;;;;9.48;5.40;;;;;;;34.98;21.54;99663.84;7727964;32;40093;-79
2023/07/11 14:48:17;;;;;;;9.57;5.60;;;;;;;34.46;22.46;99670.28;7738847;32;40892;-80
2023/07/11 14:52:33;;;;;;;10.18;5.93;;;;;;;34.55;22.16;99669.69;7723926;32;37885;-80
2023/07/11 14:56:49;;;;;;;10.13;5.60;;;;;;;34.72;22.50;99662.84;7723333;32;37249;-80
2023/07/11 15:01:12;;;;;;;11.88;5.47;;;;;;;34.95;22.00;99661.88;7729516;32;39696;-79
2023/07/11 15:05:29;;;;;;;11.52;5.85;;;;;;;35.27;22.26;99653.81;7733019;32;39994;-78
2023/07/11 15:09:48;;;;;;;10.35;5.32;;;;;;;34.91;22.08;99643.37;7718796;32;37195;-80
2023/07/11 15:14:16;;;;;;;11.45;5.37;;;;;;;34.83;22.13;99639.16;7724599;32;36727;-80
2023/07/11 15:18:36;;;;;;;8.13;4.55;;;;;;;35.35;22.32;99641.06;7726802;32;39681;-79
2023/07/11 15:22:55;;;;;;;9.70;5.85;;;;;;;34.79;23.95;99640.03;7736754;32;39956;-79
2023/07/11 15:27:15;;;;;;;10.30;5.20;;;;;;;34.97;22.96;99631.06;7725044;32;38123;-79
2023/07/11 15:31:32;;;;;;;10.48;5.70;;;;;;;34.92;23.04;99637.28;7734002;32;36988;-80
2023/07/11 15:35:48;;;;;;;8.98;5.45;;;;;;;34.73;22.58;99636.13;7718606;32;38015;-81
2023/07/11 15:40:05;;;;;;;9.60;4.95;;;;;;;35.37;22.67;99640.63;7730167;32;39904;-80
2023/07/11 15:44:27;;;;;;;10.18;5.30;;;;;;;35.01;22.14;99645.16;7700441;32;38130;-80
2023/07/11 15:48:44;;;;;;;9.38;5.47;;;;;;;34.92;22.47;99636.47;7738264;32;36941;-79
2023/07/11 15:53:00;;;;;;;10.50;5.43;;;;;;;34.60;23.27;99638.84;7728547;32;39431;-80
2023/07/11 15:57:20;;;;;;;12.13;6.00;;;;;;;34.61;22.36;99636.78;7715089;32;39940;-80
2023/07/11 16:01:36;;;;;;;8.55;4.97;;;;;;;34.50;21.81;99627.78;7720024;32;38783;-81
2023/07/11 16:05:54;;;;;;;12.73;5.78;;;;;;;34.67;21.97;99629.38;7738045;32;37963;-80
2023/07/11 16:10:20;;;;;;;12.27;6.18;;;;;;;34.47;22.40;99639.97;7723506;32;39453;-81
2023/07/11 16:14:37;;;;;;;9.10;4.85;;;;;;;34.34;22.64;99643.47;7712033;32;40878;-79
2023/07/11 16:18:54;;;;;;;10.02;5.20;;;;;;;34.07;23.14;99623.84;7735605;32;38684;-81
2023/07/11 16:23:13;;;;;;;9.88;5.07;;;;;;;34.31;23.11;99626.59;7720808;32;37951;-80
2023/07/11 16:27:30;;;;;;;10.27;5.47;;;;;;;34.49;22.19;99626.97;7712753;32;39375;-80
2023/07/11 16:31:46;;;;;;;10.30;5.87;;;;;;;34.28;21.65;99628.25;7724559;32;40915;-80
2023/07/11 16:36:03;;;;;;;11.88;5.57;;;;;;;34.28;21.81;99630.28;7716714;32;37934;-80
2023/07/11 16:40:22;;;;;;;10.18;5.70;;;;;;;33.90;22.14;99630.66;7718786;32;38055;-82
2023/07/11 16:44:39;;;;;;;11.18;6.20;;;;;;;33.99;22.31;99633.69;7715381;32;39411;-81
2023/07/11 16:48:55;;;;;;;9.88;5.60;;;;;;;33.28;22.93;99640.28;7722945;32;39444;-80
2023/07/11 16:53:26;;;;;;;14.52;5.85;;;;;;;33.66;22.68;99628.66;7720839;32;38176;-80
2023/07/11 16:57:46;;;;;;;8.93;5.37;;;;;;;33.57;23.21;99636.16;7725325;32;37703;-81
2023/07/11 17:02:15;;;;;;;11.48;5.60;;;;;;;33.22;23.07;99642.03;7726544;32;40136;-82
2023/07/11 17:06:32;;;;;;;11.48;5.07;;;;;;;33.20;23.83;99646.50;7712700;32;39702;-79
2023/07/11 17:10:52;;;;;;;9.77;5.25;;;;;;;32.89;24.28;99650.22;7713803;32;37954;-79
2023/07/11 17:15:11;;;;;;;10.68;5.78;;;;;;;33.03;24.22;99648.34;7724586;32;36694;-80
2023/07/11 17:19:35;;;;;;;13.32;5.80;;;;;;;32.86;24.40;99667.22;7715266;32;39333;-79
2023/07/11 17:23:51;;;;;;;9.95;5.78;;;;;;;33.02;24.19;99675.81;7716928;32;40026;-79
2023/07/11 17:28:18;;;;;;;10.20;5.55;;;;;;;32.81;24.31;99673.34;7729734;32;39128;-79
2023/07/11 17:32:35;;;;;;;10.23;5.53;;;;;;;32.76;24.81;99668.97;7719340;32;37249;-79
2023/07/11 17:36:51;;;;;;;12.00;5.50;;;;;;;32.63;24.72;99671.56;7723354;32;39418;-83
2023/07/11 17:41:07;;;;;;;12.60;6.00;;;;;;;32.60;25.25;99665.94;7727022;32;39875;-82
2023/07/11 17:45:24;;;;;;;11.38;5.53;;;;;;;32.53;25.82;99681.75;7710535;32;37903;-81
2023/07/11 17:49:44;;;;;;;17.25;9.05;;;;;;;32.54;25.87;99657.94;7710495;32;37453;-80
2023/07/11 17:54:06;;;;;;;10.23;6.05;;;;;;;32.53;26.07;99673.28;7721511;32;40003;-80
2023/07/11 17:58:26;;;;;;;9.85;5.32;;;;;;;32.31;26.44;99681.25;7715868;32;39907;-82
2023/07/11 18:02:44;;;;;;;11.27;6.03;;;;;;;32.21;27.19;99684.22;7726468;32;38814;-80
2023/07/11 18:07:22;;;;;;;10.90;5.70;;;;;;;32.04;27.10;99692.44;7721452;32;37036;-81
2023/07/11 18:11:39;;;;;;;10.52;5.60;;;;;;;31.94;27.50;99682.09;7715717;32;40257;-82
2023/07/11 18:15:55;;;;;;;28.30;13.88;;;;;;;31.61;28.73;99682.44;7712843;32;39734;-81
2023/07/11 18:20:17;;;;;;;15.20;6.28;;;;;;;31.41;28.89;99679.41;7709691;32;37975;-80
2023/07/11 18:24:35;;;;;;;11.65;5.68;;;;;;;31.33;29.08;99677.84;7723686;32;37921;-81
2023/07/11 18:28:51;;;;;;;11.98;5.12;;;;;;;31.11;29.96;99690.53;7715586;32;40536;-80
2023/07/11 18:33:08;;;;;;;13.57;5.18;;;;;;;30.97;29.77;99689.41;7731592;32;40673;-80
2023/07/11 18:37:25;;;;;;;11.93;6.28;;;;;;;30.84;29.74;99689.09;7734273;32;37844;-81
2023/07/11 18:41:41;;;;;;;11.98;7.03;;;;;;;30.52;30.37;99681.63;7676138;32;37616;-81
2023/07/11 18:45:57;;;;;;;12.77;5.87;;;;;;;30.16;31.41;99680.97;7676474;32;39378;-82
2023/07/11 18:50:20;;;;;;;11.60;5.53;;;;;;;30.09;31.85;99678.22;7634894;32;39753;-82
2023/07/11 18:54:36;;;;;;;;;;;;;;;29.78;33.08;99677.91;7640089;32;37834;-81
2023/07/11 18:58:52;;;;;;;9.95;5.50;;;;;;;29.62;33.29;99683.16;7637667;32;36781;-81
2023/07/11 19:03:09;;;;;;;16.17;5.78;;;;;;;29.52;33.05;99693.19;7638247;32;39384;-81
2023/07/11 19:07:30;;;;;;;10.85;5.43;;;;;;;29.31;33.23;99694.81;7639082;32;40749;-81
2023/07/11 19:11:51;;;;;;;11.85;5.53;;;;;;;29.12;33.78;99704.41;7642825;32;37785;-81
2023/07/11 19:16:29;;;;;;;8.43;4.95;;;;;;;28.84;34.06;99694.75;7642783;32;38105;-82
2023/07/11 19:20:47;;;;;;;8.57;4.40;;;;;;;28.71;33.85;99701.16;7641580;32;40167;-79
2023/07/11 19:25:04;;;;;;;9.77;4.53;;;;;;;28.66;34.13;99705.13;7641501;32;40815;-82
2023/07/11 19:29:21;;;;;;;12.85;7.07;;;;;;;28.39;34.72;99699.81;7645018;32;37947;-82
2023/07/11 19:33:37;;;;;;;24.58;12.98;;;;;;;28.27;34.79;99705.78;7646499;32;37272;-83
2023/07/11 19:38:02;;;;;;;15.93;6.53;;;;;;;27.89;36.41;99699.59;7658926;32;39457;-82
2023/07/11 19:42:20;;;;;;;14.57;5.00;;;;;;;27.78;36.78;99701.50;7643010;32;40050;-81
2023/07/11 19:46:37;;;;;;;9.68;5.82;;;;;;;27.61;36.58;99709.38;7638047;32;37857;-82
2023/07/11 19:50:56;;;;;;;8.25;4.37;;;;;;;27.52;36.71;99700.53;7642625;32;37211;-82
2023/07/11 19:55:14;;;;;;;9.65;4.28;;;;;;;27.51;36.46;99687.72;7653701;32;39406;-80
2023/07/11 19:59:31;;;;;;;13.10;6.93;;;;;;;27.17;37.01;99697.03;7652905;32;38979;-82
2023/07/11 20:03:49;;;;;;;11.70;5.80;;;;;;;26.98;37.20;99706.47;7643456;32;37678;-83
2023/07/11 20:08:17;;;;;;;11.75;4.80;;;;;;;27.08;37.30;99699.38;7647628;32;37159;-82
2023/07/11 20:12:39;;;;;;;12.25;4.62;;;;;;;26.91;37.47;99705.59;7640335;32;39106;-79
2023/07/11 20:16:55;;;;;;;8.43;4.55;;;;;;;26.64;38.70;99714.09;7644377;32;39922;-81